Weather at Glenview Airport [CLOSED]

Public forecast

Using degrees Celsius for public forecast. Weather courtesy of forecast.io.

Closest aviation weather report (METAR) to Glenview Airport

Closest report is Niagara District Airport, 6.5 nm (12.0 km) NE.

2024/05/20 18:00 (retrieved 20 minutes ago)

CYSN 201800Z 36003KT 350V050 15SM FEW070 BKN250 26/20 A2994 RMK AC2CI4 SLP138 DENSITY ALT 1700FT

Closest aviation forecast (TAF) to Glenview Airport

Closest forecast is Niagara District Airport, 6.5 nm (12.0 km) NE.

2024/05/20 13:42 (retrieved 5 hours ago)

TAF CYSN 201240Z 2013/2101 00000KT P6SM SCT050 BKN250 BECMG 2022/2024 20006KT RMK NXT FCST BY 202000Z